createdAt,value
2019-05-18T00:01:35.602Z,11.35
2019-05-18T00:04:05.325Z,11.35
2019-05-18T00:06:35.103Z,11.41
2019-05-18T00:09:06.569Z,11.53
2019-05-18T00:11:36.329Z,11.37
2019-05-18T00:14:06.173Z,11.40
2019-05-18T00:16:35.881Z,11.27
2019-05-18T00:19:05.723Z,11.18
2019-05-18T00:21:35.516Z,11.39
2019-05-18T00:24:05.371Z,11.28
2019-05-18T00:26:35.170Z,11.50
2019-05-18T00:29:05.025Z,11.36
2019-05-18T00:31:34.718Z,11.48
2019-05-18T00:34:04.503Z,11.38
2019-05-18T00:36:34.188Z,11.50
2019-05-18T00:39:05.075Z,11.45
2019-05-18T00:41:34.759Z,11.24
2019-05-18T00:44:04.606Z,11.20
2019-05-18T00:46:34.389Z,11.21
2019-05-18T00:49:04.168Z,11.19
2019-05-18T00:51:33.874Z,11.32
2019-05-18T00:54:03.645Z,11.28
2019-05-18T00:56:33.350Z,11.25
2019-05-18T00:59:03.039Z,11.29
2019-05-18T01:01:32.749Z,11.29
2019-05-18T01:04:02.464Z,11.19
2019-05-18T01:06:32.253Z,11.17
2019-05-18T01:09:02.025Z,11.19
2019-05-18T01:11:31.775Z,11.22
2019-05-18T01:14:01.484Z,11.36
2019-05-18T01:16:31.249Z,11.28
2019-05-18T01:19:00.964Z,11.21
2019-05-18T01:21:30.654Z,11.21
2019-05-18T01:24:00.408Z,11.25
2019-05-18T01:26:30.558Z,11.26
2019-05-18T01:29:06.314Z,11.16
2019-05-18T01:31:36.393Z,11.24
2019-05-18T01:34:06.218Z,11.18
2019-05-18T01:36:36.009Z,11.23
2019-05-18T01:39:07.644Z,11.28
2019-05-18T01:41:37.354Z,11.30
2019-05-18T01:44:07.172Z,11.24
2019-05-18T01:46:36.842Z,11.32
2019-05-18T01:49:06.533Z,11.37
2019-05-18T01:51:36.335Z,11.44
2019-05-18T01:54:06.080Z,11.51
2019-05-18T01:56:35.984Z,11.38
2019-05-18T01:59:05.644Z,11.53
2019-05-18T02:01:36.464Z,11.46
2019-05-18T02:04:06.148Z,11.44
2019-05-18T02:06:36.020Z,11.40
2019-05-18T02:09:08.088Z,11.41
2019-05-18T02:11:37.980Z,11.45
2019-05-18T02:14:07.817Z,11.50
2019-05-18T02:16:37.616Z,11.44
2019-05-18T02:19:07.300Z,11.59
2019-05-18T02:21:37.004Z,11.50
2019-05-18T02:24:06.837Z,11.46
2019-05-18T02:26:36.549Z,11.40
2019-05-18T02:29:06.243Z,11.46
2019-05-18T02:31:35.957Z,11.66
2019-05-18T02:34:05.665Z,11.67
2019-05-18T02:36:35.364Z,11.70
2019-05-18T02:39:07.134Z,11.60
2019-05-18T02:41:36.919Z,11.56
2019-05-18T02:44:06.850Z,11.73
2019-05-18T02:46:36.644Z,11.57
2019-05-18T02:49:06.397Z,11.56
2019-05-18T02:51:36.103Z,11.58
2019-05-18T02:54:05.768Z,11.53
2019-05-18T02:56:35.947Z,11.45
2019-05-18T02:59:05.635Z,11.47
2019-05-18T03:01:35.448Z,11.41
2019-05-18T03:04:05.147Z,11.55
2019-05-18T03:06:34.925Z,11.47
2019-05-18T03:09:06.438Z,11.49
2019-05-18T03:11:36.414Z,11.53
2019-05-18T03:14:06.173Z,11.43
2019-05-18T03:16:35.957Z,11.40
2019-05-18T03:19:08.628Z,11.48
2019-05-18T03:21:37.179Z,11.54
2019-05-18T03:24:06.883Z,11.50
2019-05-18T03:26:36.601Z,11.51
2019-05-18T03:29:06.358Z,11.70
2019-05-18T03:31:36.067Z,11.60
2019-05-18T03:34:06.061Z,11.68
2019-05-18T03:36:35.895Z,11.72
2019-05-18T03:39:06.750Z,11.80
2019-05-18T03:41:36.592Z,11.66
2019-05-18T03:44:06.287Z,11.68
2019-05-18T03:46:36.005Z,11.70
2019-05-18T03:49:05.804Z,11.67
2019-05-18T03:51:35.486Z,11.80
2019-05-18T03:54:05.198Z,11.90
2019-05-18T03:56:35.016Z,11.91
2019-05-18T03:59:04.877Z,11.88
2019-05-18T04:01:35.651Z,11.83
2019-05-18T04:04:05.412Z,11.94
2019-05-18T04:06:35.127Z,11.93
2019-05-18T04:09:06.371Z,11.93
2019-05-18T04:11:36.151Z,11.93
2019-05-18T04:14:08.326Z,12.09
2019-05-18T04:16:37.416Z,11.99
2019-05-18T04:19:07.091Z,12.09
2019-05-18T04:21:36.804Z,12.08
2019-05-18T04:24:06.591Z,11.94
2019-05-18T04:26:36.551Z,11.96
2019-05-18T04:29:06.410Z,11.99
2019-05-18T04:31:36.112Z,11.98
2019-05-18T04:34:05.943Z,12.10
2019-05-18T04:36:35.649Z,12.10
2019-05-18T04:39:06.896Z,12.24
2019-05-18T04:41:36.597Z,12.21
2019-05-18T04:44:06.434Z,12.14
2019-05-18T04:46:36.219Z,12.22
2019-05-18T04:49:05.996Z,12.26
2019-05-18T04:51:35.708Z,12.29
2019-05-18T04:54:05.456Z,12.20
2019-05-18T04:56:35.191Z,12.23
2019-05-18T04:59:05.032Z,12.30
2019-05-18T05:01:34.867Z,12.37
2019-05-18T05:04:04.697Z,12.31
2019-05-18T05:06:34.573Z,12.29
2019-05-18T05:09:06.053Z,12.37
2019-05-18T05:11:35.784Z,12.30
2019-05-18T05:14:05.625Z,12.44
2019-05-18T05:16:35.360Z,12.63
2019-05-18T05:19:08.517Z,12.52
2019-05-18T05:21:36.618Z,12.41
2019-05-18T05:24:06.366Z,12.57
2019-05-18T05:26:39.291Z,12.63
2019-05-18T05:29:07.488Z,12.77
2019-05-18T05:31:37.228Z,12.75
2019-05-18T05:34:06.927Z,12.95
2019-05-18T05:36:36.636Z,13.06
2019-05-18T05:39:07.408Z,13.01
2019-05-18T05:41:37.094Z,13.10
2019-05-18T05:44:06.816Z,13.06
2019-05-18T05:46:37.469Z,13.07
2019-05-18T05:49:07.392Z,13.06
2019-05-18T05:51:37.098Z,13.10
2019-05-18T05:54:06.816Z,13.26
2019-05-18T05:56:36.593Z,13.35
2019-05-18T05:59:06.399Z,13.56
2019-05-18T06:01:36.167Z,13.53
2019-05-18T06:04:05.875Z,13.58
2019-05-18T06:06:35.639Z,13.49
2019-05-18T06:09:07.094Z,13.50
2019-05-18T06:11:36.775Z,13.80
2019-05-18T06:14:06.500Z,13.88
2019-05-18T06:16:36.180Z,13.94
2019-05-18T06:19:05.874Z,14.18
2019-05-18T06:21:35.557Z,14.12
2019-05-18T06:24:05.472Z,13.76
2019-05-18T06:26:35.180Z,13.53
2019-05-18T06:29:05.147Z,13.44
2019-05-18T06:31:34.857Z,13.86
2019-05-18T06:34:04.643Z,13.86
2019-05-18T06:36:34.391Z,13.98
2019-05-18T06:39:05.751Z,13.82
2019-05-18T06:41:35.520Z,13.81
2019-05-18T06:44:05.742Z,13.53
2019-05-18T06:46:35.430Z,13.63
2019-05-18T06:49:05.215Z,13.78
2019-05-18T06:51:34.898Z,14.17
2019-05-18T06:54:04.675Z,14.68
2019-05-18T06:56:34.783Z,14.61
2019-05-18T06:59:04.480Z,14.81
2019-05-18T07:01:35.286Z,14.82
2019-05-18T07:04:05.135Z,14.96
2019-05-18T07:06:34.836Z,15.16
2019-05-18T07:09:13.121Z,15.55
2019-05-18T07:11:38.504Z,15.60
2019-05-18T07:14:08.374Z,15.91
2019-05-18T07:16:38.155Z,16.01
2019-05-18T07:19:07.854Z,15.99
2019-05-18T07:21:37.558Z,15.82
2019-05-18T07:24:07.267Z,15.86
2019-05-18T07:26:37.045Z,16.06
2019-05-18T07:29:06.821Z,15.77
2019-05-18T07:31:36.584Z,16.03
2019-05-18T07:34:06.417Z,16.02
2019-05-18T07:36:36.214Z,15.69
2019-05-18T07:39:07.064Z,15.64
2019-05-18T07:41:46.203Z,15.62
2019-05-18T07:44:08.335Z,15.87
2019-05-18T07:46:38.077Z,15.84
2019-05-18T07:49:07.944Z,15.87
2019-05-18T07:51:37.774Z,16.06
2019-05-18T07:54:07.589Z,16.08
2019-05-18T07:56:37.328Z,16.46
2019-05-18T07:59:07.086Z,16.46
2019-05-18T08:01:42.528Z,16.21
2019-05-18T08:04:12.270Z,16.76
2019-05-18T08:06:42.085Z,17.23
2019-05-18T08:09:11.903Z,16.97
2019-05-18T08:11:41.744Z,17.24
2019-05-18T08:14:11.644Z,17.55
2019-05-18T08:16:41.353Z,17.10
2019-05-18T08:19:11.190Z,17.28
2019-05-18T08:21:52.722Z,17.15
2019-05-18T08:24:12.554Z,17.63
2019-05-18T08:26:42.331Z,17.64
2019-05-18T08:29:12.181Z,17.78
2019-05-18T08:31:42.016Z,17.59
2019-05-18T08:34:11.755Z,17.31
2019-05-18T08:36:41.520Z,17.51
2019-05-18T08:39:11.310Z,17.89
2019-05-18T08:41:41.101Z,17.62
2019-05-18T08:44:11.096Z,18.05
2019-05-18T08:46:40.810Z,18.26
2019-05-18T08:49:10.564Z,17.85
2019-05-18T08:51:40.280Z,17.75
2019-05-18T08:54:10.112Z,18.02
2019-05-18T08:56:40.109Z,18.24
2019-05-18T08:59:09.950Z,18.70
2019-05-18T09:01:39.674Z,18.24
2019-05-18T09:04:09.576Z,18.27
2019-05-18T09:06:39.494Z,18.44
2019-05-18T09:09:09.228Z,18.59
2019-05-18T09:11:39.249Z,18.81
2019-05-18T09:14:09.392Z,18.95
2019-05-18T09:16:39.357Z,19.15
2019-05-18T09:19:09.509Z,18.68
2019-05-18T09:21:39.477Z,18.94
2019-05-18T09:24:09.242Z,18.90
2019-05-18T09:26:38.984Z,19.24
2019-05-18T09:29:08.912Z,19.24
2019-05-18T09:31:38.668Z,19.60
2019-05-18T09:34:08.684Z,19.73
2019-05-18T09:36:38.431Z,19.61
2019-05-18T09:39:08.320Z,19.66
2019-05-18T09:41:38.241Z,19.91
2019-05-18T09:44:08.123Z,19.98
2019-05-18T09:46:37.987Z,19.47
2019-05-18T09:49:07.889Z,19.80
2019-05-18T09:51:37.858Z,19.81
2019-05-18T09:54:07.643Z,20.04
2019-05-18T09:56:37.490Z,20.17
2019-05-18T09:59:07.406Z,20.42
2019-05-18T10:01:37.156Z,20.18
2019-05-18T10:04:07.047Z,20.15
2019-05-18T10:06:36.810Z,19.97
2019-05-18T10:09:08.648Z,20.07
2019-05-18T10:11:38.869Z,20.40
2019-05-18T10:14:08.726Z,20.51
2019-05-18T10:16:38.439Z,20.47
2019-05-18T10:19:08.153Z,20.46
2019-05-18T10:21:37.912Z,20.46
2019-05-18T10:24:07.625Z,20.43
2019-05-18T10:26:37.339Z,20.45
2019-05-18T10:29:07.091Z,20.08
2019-05-18T10:31:36.930Z,20.27
2019-05-18T10:34:06.691Z,20.62
2019-05-18T10:36:36.426Z,20.33
2019-05-18T10:39:07.546Z,20.42
2019-05-18T10:41:37.252Z,20.56
2019-05-18T10:44:06.942Z,20.53
2019-05-18T10:46:36.740Z,20.93
2019-05-18T10:49:06.436Z,20.98
2019-05-18T10:51:36.196Z,21.24
2019-05-18T10:54:05.982Z,20.91
2019-05-18T10:56:40.214Z,21.01
2019-05-18T10:59:10.023Z,21.16
2019-05-18T11:01:49.517Z,21.08
2019-05-18T11:04:19.226Z,21.41
2019-05-18T11:06:49.070Z,21.17
2019-05-18T11:09:18.835Z,21.35
2019-05-18T11:11:48.758Z,21.55
2019-05-18T11:14:18.997Z,21.38
2019-05-18T11:16:48.842Z,21.38
2019-05-18T11:19:18.519Z,21.07
2019-05-18T11:21:48.299Z,21.15
2019-05-18T11:24:18.054Z,21.22
2019-05-18T11:26:47.830Z,21.20
2019-05-18T11:29:17.521Z,21.11
2019-05-18T11:31:47.263Z,21.30
2019-05-18T11:34:16.948Z,21.48
2019-05-18T11:36:46.727Z,21.50
2019-05-18T11:39:16.414Z,21.40
2019-05-18T11:41:46.143Z,21.50
2019-05-18T11:44:15.982Z,21.02
2019-05-18T11:46:45.905Z,21.37
2019-05-18T11:49:16.660Z,21.52
2019-05-18T11:51:46.486Z,21.74
2019-05-18T11:54:16.286Z,21.41
2019-05-18T11:56:46.059Z,21.43
2019-05-18T11:59:16.061Z,21.31
2019-05-18T12:01:45.804Z,21.55
2019-05-18T12:04:15.531Z,21.63
2019-05-18T12:06:45.302Z,21.85
2019-05-18T12:09:15.074Z,21.62
2019-05-18T12:11:44.917Z,21.23
2019-05-18T12:14:14.754Z,21.23
2019-05-18T12:16:44.646Z,21.07
2019-05-18T12:19:14.573Z,21.32
2019-05-18T12:21:44.371Z,21.47
2019-05-18T12:24:15.908Z,21.12
2019-05-18T12:26:45.719Z,21.18
2019-05-18T12:29:15.507Z,21.17
2019-05-18T12:31:45.319Z,21.37
2019-05-18T12:34:15.087Z,21.49
2019-05-18T12:36:44.858Z,21.44
2019-05-18T12:39:14.647Z,21.61
2019-05-18T12:41:44.395Z,21.70
2019-05-18T12:44:14.160Z,20.99
2019-05-18T12:46:43.925Z,21.38
2019-05-18T12:49:13.756Z,21.25
2019-05-18T12:51:43.598Z,21.28
2019-05-18T12:54:13.428Z,21.03
2019-05-18T12:56:43.196Z,21.46
2019-05-18T12:59:12.988Z,21.25
2019-05-18T13:01:43.874Z,21.28
2019-05-18T13:04:13.836Z,20.80
2019-05-18T13:06:43.598Z,20.74
2019-05-18T13:09:13.536Z,21.00
2019-05-18T13:11:43.352Z,21.22
2019-05-18T13:14:13.076Z,21.18
2019-05-18T13:16:42.846Z,20.87
2019-05-18T13:19:12.771Z,20.91
2019-05-18T13:21:42.478Z,21.14
2019-05-18T13:24:12.316Z,21.06
2019-05-18T13:26:42.117Z,21.06
2019-05-18T13:29:11.958Z,21.20
2019-05-18T13:31:41.806Z,21.33
2019-05-18T13:34:11.636Z,21.31
2019-05-18T13:36:41.375Z,21.05
2019-05-18T13:39:11.212Z,21.34
2019-05-18T13:41:41.104Z,21.23
2019-05-18T13:44:11.031Z,21.25
2019-05-18T13:46:40.869Z,21.09
2019-05-18T13:49:10.703Z,21.12
2019-05-18T13:51:40.542Z,21.45
2019-05-18T13:54:10.283Z,21.23
2019-05-18T13:56:40.100Z,20.99
2019-05-18T13:59:09.940Z,21.15
2019-05-18T14:01:39.853Z,21.40
2019-05-18T14:04:09.661Z,21.17
2019-05-18T14:06:39.523Z,21.08
2019-05-18T14:09:15.330Z,21.07
2019-05-18T14:11:45.250Z,21.18
2019-05-18T14:14:16.719Z,21.46
2019-05-18T14:16:46.566Z,21.35
2019-05-18T14:19:16.497Z,21.26
2019-05-18T14:21:46.326Z,21.67
2019-05-18T14:24:16.144Z,21.63
2019-05-18T14:26:45.903Z,21.60
2019-05-18T14:29:15.628Z,21.48
2019-05-18T14:31:45.420Z,21.65
2019-05-18T14:34:15.176Z,21.58
2019-05-18T14:36:44.988Z,21.35
2019-05-18T14:39:14.778Z,21.39
2019-05-18T14:41:44.790Z,21.55
2019-05-18T14:44:14.489Z,21.34
2019-05-18T14:46:44.228Z,21.29
2019-05-18T14:49:14.017Z,21.42
2019-05-18T14:51:43.780Z,21.70
2019-05-18T14:54:13.603Z,21.51
2019-05-18T14:56:43.396Z,21.35
2019-05-18T14:59:13.219Z,21.34
2019-05-18T15:02:01.519Z,21.32
2019-05-18T15:04:31.366Z,21.41
2019-05-18T15:07:01.144Z,21.41
2019-05-18T15:09:30.943Z,21.54
2019-05-18T15:12:00.720Z,21.42
2019-05-18T15:14:30.536Z,21.39
2019-05-18T15:17:00.365Z,21.44
2019-05-18T15:19:30.088Z,21.17
2019-05-18T15:22:00.018Z,21.17
2019-05-18T15:24:29.806Z,21.24
2019-05-18T15:26:59.614Z,21.27
2019-05-18T15:29:29.446Z,21.01
2019-05-18T15:31:59.288Z,20.92
2019-05-18T15:34:29.044Z,20.87
2019-05-18T15:36:58.781Z,20.77
2019-05-18T15:39:28.563Z,20.82
2019-05-18T15:41:58.339Z,21.02
2019-05-18T15:44:28.160Z,20.83
2019-05-18T15:46:58.203Z,20.63
2019-05-18T15:49:27.994Z,20.74
2019-05-18T15:51:57.989Z,20.69
2019-05-18T15:54:27.815Z,20.52
2019-05-18T15:56:57.578Z,20.53
2019-05-18T15:59:27.329Z,20.54
2019-05-18T16:01:57.443Z,20.56
2019-05-18T16:04:27.275Z,20.54
2019-05-18T16:06:57.044Z,20.47
2019-05-18T16:09:26.915Z,20.49
2019-05-18T16:11:56.753Z,20.42
2019-05-18T16:14:26.667Z,20.44
2019-05-18T16:16:56.432Z,20.59
2019-05-18T16:19:26.190Z,20.68
2019-05-18T16:21:55.952Z,20.36
2019-05-18T16:24:25.759Z,20.21
2019-05-18T16:26:55.549Z,20.36
2019-05-18T16:29:25.370Z,20.21
2019-05-18T16:31:55.260Z,20.21
2019-05-18T16:34:25.038Z,20.21
2019-05-18T16:36:54.831Z,20.24
2019-05-18T16:39:24.730Z,20.38
2019-05-18T16:41:54.737Z,20.48
2019-05-18T16:44:24.831Z,20.39
2019-05-18T16:46:54.775Z,20.33
2019-05-18T16:49:24.633Z,20.37
2019-05-18T16:51:54.491Z,20.22
2019-05-18T16:54:25.292Z,20.05
2019-05-18T16:56:55.091Z,20.09
2019-05-18T16:59:24.969Z,20.18
2019-05-18T17:01:54.798Z,20.19
2019-05-18T17:04:24.621Z,20.11
2019-05-18T17:06:54.360Z,19.99
2019-05-18T17:09:24.299Z,20.02
2019-05-18T17:11:54.234Z,19.96
2019-05-18T17:14:24.041Z,19.98
2019-05-18T17:16:53.972Z,19.85
2019-05-18T17:19:23.822Z,19.88
2019-05-18T17:21:53.601Z,19.68
2019-05-18T17:24:23.344Z,19.53
2019-05-18T17:26:53.711Z,19.48
2019-05-18T17:29:23.628Z,19.32
2019-05-18T17:31:53.367Z,19.46
2019-05-18T17:34:23.175Z,19.40
2019-05-18T17:36:53.093Z,19.30
2019-05-18T17:39:22.880Z,19.32
2019-05-18T17:41:52.735Z,19.38
2019-05-18T17:44:22.535Z,19.23
2019-05-18T17:46:52.362Z,19.00
2019-05-18T17:49:26.707Z,19.06
2019-05-18T17:51:53.628Z,19.12
2019-05-18T17:54:23.381Z,18.85
2019-05-18T17:57:07.446Z,18.90
2019-05-18T17:59:24.684Z,18.83
2019-05-18T18:01:54.617Z,18.75
2019-05-18T18:04:24.424Z,18.76
2019-05-18T18:06:54.370Z,18.59
2019-05-18T18:09:24.157Z,18.40
2019-05-18T18:11:53.965Z,18.45
2019-05-18T18:14:23.959Z,18.43
2019-05-18T18:16:53.721Z,18.41
2019-05-18T18:19:23.459Z,18.41
2019-05-18T18:21:53.218Z,18.26
2019-05-18T18:24:23.000Z,18.27
2019-05-18T18:26:52.797Z,18.12
2019-05-18T18:29:22.650Z,18.14
2019-05-18T18:31:52.392Z,17.79
2019-05-18T18:34:22.136Z,17.89
2019-05-18T18:36:51.886Z,17.68
2019-05-18T18:39:21.752Z,17.67
2019-05-18T18:41:51.511Z,17.72
2019-05-18T18:44:21.357Z,17.56
2019-05-18T18:46:51.148Z,17.37
2019-05-18T18:49:20.988Z,17.28
2019-05-18T18:51:50.739Z,17.27
2019-05-18T18:54:20.489Z,17.00
2019-05-18T18:56:50.252Z,16.75
2019-05-18T18:59:20.202Z,16.74
2019-05-18T19:01:50.076Z,16.55
2019-05-18T19:04:19.990Z,16.38
2019-05-18T19:06:49.915Z,16.34
2019-05-18T19:09:19.672Z,16.27
2019-05-18T19:11:49.618Z,16.34
2019-05-18T19:14:19.356Z,16.25
2019-05-18T19:16:49.175Z,16.21
2019-05-18T19:19:19.076Z,16.06
2019-05-18T19:21:48.951Z,15.98
2019-05-18T19:24:18.690Z,15.84
2019-05-18T19:26:48.578Z,15.82
2019-05-18T19:29:18.445Z,15.70
2019-05-18T19:31:48.216Z,15.92
2019-05-18T19:34:18.096Z,15.76
2019-05-18T19:36:47.991Z,15.62
2019-05-18T19:39:17.815Z,15.42
2019-05-18T19:41:47.613Z,15.40
2019-05-18T19:44:17.430Z,15.32
2019-05-18T19:46:47.244Z,15.29
2019-05-18T19:49:17.024Z,15.38
2019-05-18T19:51:46.785Z,15.26
2019-05-18T19:54:16.650Z,15.24
2019-05-18T19:56:46.860Z,15.24
2019-05-18T19:59:17.069Z,15.03
2019-05-18T20:01:46.923Z,15.05
2019-05-18T20:04:16.634Z,14.89
2019-05-18T20:06:46.338Z,14.81
2019-05-18T20:09:16.059Z,14.68
2019-05-18T20:11:45.842Z,14.70
2019-05-18T20:14:15.526Z,14.61
2019-05-18T20:16:45.334Z,14.67
2019-05-18T20:19:15.093Z,14.68
2019-05-18T20:21:44.953Z,14.63
2019-05-18T20:24:14.780Z,14.71
2019-05-18T20:26:44.567Z,14.62
2019-05-18T20:29:14.372Z,14.76
2019-05-18T20:31:44.145Z,14.45
2019-05-18T20:34:13.906Z,14.33
2019-05-18T20:36:43.667Z,14.22
2019-05-18T20:39:13.422Z,14.28
2019-05-18T20:41:43.265Z,14.42
2019-05-18T20:44:13.092Z,14.10
2019-05-18T20:46:42.971Z,14.15
2019-05-18T20:49:12.724Z,14.07
2019-05-18T20:51:42.598Z,14.07
2019-05-18T20:54:12.514Z,13.96
2019-05-18T20:56:42.326Z,13.90
2019-05-18T20:59:12.099Z,13.86
2019-05-18T21:01:41.907Z,14.10
2019-05-18T21:04:11.722Z,14.13
2019-05-18T21:06:45.281Z,14.03
2019-05-18T21:09:13.286Z,13.88
2019-05-18T21:11:43.088Z,13.76
2019-05-18T21:14:12.937Z,13.74
2019-05-18T21:16:42.675Z,13.55
2019-05-18T21:19:12.533Z,13.74
2019-05-18T21:21:42.308Z,13.76
2019-05-18T21:24:12.171Z,13.60
2019-05-18T21:26:42.035Z,13.49
2019-05-18T21:29:11.854Z,13.60
2019-05-18T21:31:41.657Z,13.58
2019-05-18T21:34:11.563Z,13.42
2019-05-18T21:36:41.484Z,13.29
2019-05-18T21:39:11.245Z,13.34
2019-05-18T21:41:41.074Z,13.37
2019-05-18T21:44:11.079Z,13.29
2019-05-18T21:46:40.995Z,13.28
2019-05-18T21:49:10.903Z,13.40
2019-05-18T21:51:40.750Z,13.45
2019-05-18T21:54:10.595Z,13.50
2019-05-18T21:56:40.414Z,13.47
2019-05-18T21:59:12.105Z,13.33
2019-05-18T22:01:42.490Z,13.48
2019-05-18T22:04:12.506Z,13.39
2019-05-18T22:06:42.353Z,13.37
2019-05-18T22:09:12.266Z,13.34
2019-05-18T22:11:43.002Z,13.24
2019-05-18T22:14:12.899Z,13.20
2019-05-18T22:16:42.666Z,13.22
2019-05-18T22:19:12.596Z,13.30
2019-05-18T22:21:42.401Z,13.28
2019-05-18T22:24:12.273Z,13.31
2019-05-18T22:26:42.109Z,13.27
2019-05-18T22:29:11.848Z,13.21
2019-05-18T22:31:41.786Z,13.17
2019-05-18T22:34:11.719Z,13.11
2019-05-18T22:36:41.628Z,13.10
2019-05-18T22:39:11.391Z,13.26
2019-05-18T22:41:41.110Z,13.16
2019-05-18T22:44:11.097Z,13.22
2019-05-18T22:46:40.912Z,13.09
2019-05-18T22:49:10.817Z,13.20
2019-05-18T22:51:40.597Z,12.97
2019-05-18T22:54:10.423Z,12.93
2019-05-18T22:56:40.220Z,12.87
2019-05-18T22:59:09.963Z,12.82
2019-05-18T23:01:39.794Z,12.64
2019-05-18T23:04:09.736Z,12.69
2019-05-18T23:06:39.513Z,12.66
2019-05-18T23:09:09.419Z,12.73
2019-05-18T23:11:39.198Z,12.67
2019-05-18T23:14:09.227Z,12.66
2019-05-18T23:16:39.095Z,12.72
2019-05-18T23:19:09.052Z,12.77
2019-05-18T23:21:39.172Z,12.63
2019-05-18T23:24:09.015Z,12.58
2019-05-18T23:26:38.804Z,12.53
2019-05-18T23:29:08.646Z,12.57
2019-05-18T23:31:38.481Z,12.49
2019-05-18T23:34:08.215Z,12.60
2019-05-18T23:36:38.060Z,12.57
2019-05-18T23:39:07.961Z,12.50
2019-05-18T23:41:37.749Z,12.35
2019-05-18T23:44:07.692Z,12.20
2019-05-18T23:46:37.670Z,12.33
2019-05-18T23:49:10.746Z,12.36
2019-05-18T23:51:38.857Z,12.32
2019-05-18T23:54:14.282Z,12.30
2019-05-18T23:56:44.043Z,12.29
2019-05-18T23:59:13.884Z,12.32
